Time;durP1;ratioP1;P1;durP2;ratioP2;P2;SDS_P1;SDS_P2;PMS_P1;PMS_P2;Temp;Humidity;BMP_temperature;BMP_pressure;BME280_temperature;BME280_humidity;BME280_pressure;Samples;Min_cycle;Max_cycle;Signal;HPM_P1;HPM_P2
2022/05/22 00:02:12;;;;;;;5.85;3.08;;;;;;;13.11;83.92;100284.19;5056103;28;20172;-75
2022/05/22 00:04:40;;;;;;;5.53;3.08;;;;;;;13.14;83.52;100285.25;5037686;28;20504;-75
2022/05/22 00:07:06;;;;;;;4.50;3.20;;;;;;;13.08;83.07;100273.69;5056051;28;20021;-75
2022/05/22 00:09:35;;;;;;;3.65;2.90;;;;;;;13.11;83.37;100283.38;5038137;28;20028;-74
2022/05/22 00:12:01;;;;;;;5.50;2.72;;;;;;;13.10;83.53;100291.16;5038161;28;20547;-75
2022/05/22 00:14:26;;;;;;;4.95;3.67;;;;;;;13.11;83.33;100286.22;5038080;28;20056;-75
2022/05/22 00:16:53;;;;;;;5.22;3.22;;;;;;;13.12;83.54;100282.91;5005024;28;20116;-75
2022/05/22 00:19:22;;;;;;;5.50;2.97;;;;;;;13.19;83.38;100293.91;5037936;28;20051;-75
2022/05/22 00:21:48;;;;;;;6.47;2.88;;;;;;;13.20;83.65;100278.34;5018255;28;20025;-75
2022/05/22 00:24:24;;;;;;;4.75;2.90;;;;;;;13.15;82.88;100255.38;5021309;28;20108;-74
2022/05/22 00:26:52;;;;;;;3.05;2.78;;;;;;;13.31;82.94;100269.13;5037925;28;20465;-75
2022/05/22 00:29:18;;;;;;;6.05;3.20;;;;;;;13.29;82.79;100278.19;5021227;28;20159;-74
2022/05/22 00:31:45;;;;;;;5.68;3.45;;;;;;;13.28;82.67;100275.81;5009332;28;20117;-74
2022/05/22 00:34:12;;;;;;;7.50;3.05;;;;;;;13.28;83.47;100279.47;5014482;28;20046;-73
2022/05/22 00:36:39;;;;;;;4.55;3.17;;;;;;;13.30;83.38;100279.00;4982013;28;20497;-75
2022/05/22 00:39:05;;;;;;;5.03;3.55;;;;;;;13.34;83.38;100280.34;4998199;28;20041;-75
2022/05/22 00:41:32;;;;;;;5.22;2.90;;;;;;;13.40;83.10;100283.28;4998040;28;20395;-75
2022/05/22 00:44:00;;;;;;;9.68;3.03;;;;;;;13.44;82.40;100278.13;4998317;28;20491;-75
2022/05/22 00:46:29;;;;;;;8.13;2.72;;;;;;;13.48;82.33;100275.84;4981782;28;20036;-74
2022/05/22 00:49:21;;;;;;;3.80;2.83;;;;;;;13.50;81.92;100276.16;5014113;28;20044;-74
2022/05/22 00:51:52;;;;;;;8.32;3.28;;;;;;;13.53;82.40;100272.28;5014192;28;20037;-75
2022/05/22 00:54:24;;;;;;;6.78;3.33;;;;;;;13.52;82.26;100272.78;5014082;28;20345;-75
2022/05/22 00:57:23;;;;;;;9.38;3.58;;;;;;;13.27;82.45;100237.84;5014071;28;20038;-74
2022/05/22 00:59:59;;;;;;;3.65;2.97;;;;;;;13.31;83.04;100272.78;5010945;28;20046;-74
2022/05/22 01:02:27;;;;;;;4.47;2.97;;;;;;;13.26;83.36;100282.06;4997503;28;20038;-74
2022/05/22 01:04:52;;;;;;;4.30;2.83;;;;;;;13.20;83.37;100280.41;4997735;28;20052;-74
2022/05/22 01:07:19;;;;;;;7.40;3.10;;;;;;;13.15;83.54;100278.25;5014556;28;20117;-74
2022/05/22 01:09:46;;;;;;;5.85;3.28;;;;;;;13.06;83.86;100275.50;5013730;28;20467;-73
2022/05/22 01:12:18;;;;;;;7.10;3.10;;;;;;;12.99;84.47;100283.19;5013687;28;20060;-74
2022/05/22 01:14:47;;;;;;;7.18;3.15;;;;;;;12.91;84.35;100276.31;4981003;28;20466;-73
2022/05/22 01:17:14;;;;;;;5.38;3.03;;;;;;;12.87;85.13;100283.53;4997839;28;20053;-74
2022/05/22 01:19:39;;;;;;;5.18;3.38;;;;;;;12.82;84.35;100287.88;4997409;28;20079;-74
2022/05/22 01:22:12;;;;;;;4.20;2.85;;;;;;;12.79;85.14;100285.97;5012998;28;20041;-75
2022/05/22 01:24:39;;;;;;;3.85;3.03;;;;;;;12.72;85.40;100286.41;5013827;28;20044;-75
2022/05/22 01:27:09;;;;;;;4.47;3.22;;;;;;;12.67;85.31;100289.94;4997298;28;20042;-75
2022/05/22 01:29:35;;;;;;;5.10;3.17;;;;;;;12.63;85.46;100286.47;5013747;28;20041;-74
2022/05/22 01:32:04;;;;;;;4.53;3.00;;;;;;;12.57;86.08;100282.78;5013318;28;20037;-75
2022/05/22 01:34:33;;;;;;;4.05;2.88;;;;;;;12.52;86.49;100278.53;5013260;28;20041;-75
2022/05/22 01:37:00;;;;;;;6.90;3.20;;;;;;;12.48;86.96;100277.16;5015031;28;20041;-73
2022/05/22 01:39:27;;;;;;;7.35;3.53;;;;;;;12.43;86.98;100275.75;5013482;28;20124;-73
2022/05/22 01:41:54;;;;;;;8.95;3.78;;;;;;;12.34;87.45;100267.28;5013076;28;20030;-74
2022/05/22 01:44:22;;;;;;;4.20;2.90;;;;;;;12.32;87.82;100275.56;5014869;28;20029;-73
2022/05/22 01:46:48;;;;;;;7.28;3.10;;;;;;;12.29;88.45;100270.84;4996985;28;20049;-73
2022/05/22 01:49:14;;;;;;;7.53;3.42;;;;;;;12.24;88.80;100265.81;5013016;28;20400;-73
2022/05/22 01:51:41;;;;;;;5.25;3.60;;;;;;;12.27;88.31;100276.25;5013014;28;20486;-74
2022/05/22 01:54:08;;;;;;;3.67;3.20;;;;;;;12.27;89.07;100273.41;4996745;28;20108;-75
2022/05/22 01:56:34;;;;;;;6.97;3.08;;;;;;;12.31;89.04;100270.34;5013110;28;20041;-73
2022/05/22 01:59:02;;;;;;;4.75;3.65;;;;;;;12.30;89.23;100272.41;4996865;28;20030;-73
2022/05/22 02:01:27;;;;;;;4.78;2.90;;;;;;;12.30;88.97;100272.41;4996667;28;20030;-75
2022/05/22 02:04:07;;;;;;;5.95;3.80;;;;;;;12.32;88.99;100269.06;5012780;28;20490;-74
2022/05/22 02:06:34;;;;;;;6.20;3.78;;;;;;;12.30;88.82;100271.63;4996472;28;20068;-74
2022/05/22 02:09:01;;;;;;;5.18;3.20;;;;;;;12.25;88.58;100272.31;4996479;28;20506;-73
2022/05/22 02:11:26;;;;;;;3.58;3.15;;;;;;;12.21;88.76;100266.00;5012776;28;20030;-74
2022/05/22 02:13:54;;;;;;;5.35;3.28;;;;;;;12.16;88.79;100263.84;5014088;28;20041;-74
2022/05/22 02:16:20;;;;;;;5.60;3.20;;;;;;;12.13;88.62;100259.91;5013618;28;20099;-75
2022/05/22 02:18:47;;;;;;;4.28;3.22;;;;;;;12.20;89.71;100262.38;5011503;28;20119;-74
2022/05/22 02:21:16;;;;;;;5.28;3.30;;;;;;;12.20;90.33;100270.94;5014068;28;20029;-75
2022/05/22 02:23:43;;;;;;;6.03;3.72;;;;;;;12.23;90.15;100261.41;5014116;28;20056;-74
2022/05/22 02:26:24;;;;;;;5.70;3.50;;;;;;;12.29;89.89;100267.19;5012565;28;20117;-75
2022/05/22 02:28:49;;;;;;;3.78;2.95;;;;;;;12.31;89.12;100262.56;5013417;28;20037;-72
2022/05/22 02:31:16;;;;;;;6.20;3.40;;;;;;;12.38;89.15;100265.00;5012647;28;20052;-73
2022/05/22 02:33:42;;;;;;;4.43;3.75;;;;;;;12.41;88.88;100268.97;5013858;28;20026;-75
2022/05/22 02:36:10;;;;;;;3.85;3.38;;;;;;;12.41;88.64;100266.13;4996053;28;20018;-75
2022/05/22 02:38:40;;;;;;;5.38;3.25;;;;;;;12.41;88.38;100260.41;5013286;28;20030;-74
2022/05/22 02:41:11;;;;;;;7.72;3.25;;;;;;;12.38;88.50;100265.00;4996091;28;20034;-73
2022/05/22 02:43:37;;;;;;;7.35;2.92;;;;;;;12.33;88.24;100262.09;4996027;28;20528;-74
2022/05/22 02:46:14;;;;;;;3.88;2.60;;;;;;;12.29;88.85;100265.13;4996192;28;20037;-74
2022/05/22 02:48:49;;;;;;;4.90;2.97;;;;;;;12.25;88.95;100270.25;5012674;28;20422;-73
2022/05/22 02:51:16;;;;;;;4.93;3.40;;;;;;;12.23;89.21;100269.19;5012493;28;20030;-74
2022/05/22 02:53:44;;;;;;;5.75;3.15;;;;;;;12.17;89.64;100260.50;4995864;28;20034;-74
2022/05/22 02:56:14;;;;;;;6.07;3.08;;;;;;;12.19;89.30;100260.00;4996430;28;20542;-73
2022/05/22 02:58:41;;;;;;;5.70;3.70;;;;;;;12.21;89.38;100266.00;4980136;28;20067;-73
2022/05/22 03:01:06;;;;;;;7.53;2.95;;;;;;;12.22;89.98;100265.53;5013234;28;20041;-73
2022/05/22 03:03:33;;;;;;;6.70;3.42;;;;;;;12.22;89.86;100264.75;5013499;28;20541;-74
2022/05/22 03:08:43;;;;;;;5.70;3.15;;;;;;;12.24;90.41;100259.31;5012568;28;20563;-75
2022/05/22 03:11:09;;;;;;;4.63;3.58;;;;;;;12.35;89.68;100270.94;5013490;28;20030;-73
2022/05/22 03:13:35;;;;;;;5.82;3.38;;;;;;;12.36;90.04;100270.44;5012244;28;20044;-73
2022/05/22 03:16:01;;;;;;;4.75;3.50;;;;;;;12.46;89.48;100271.13;4995689;28;20072;-74
2022/05/22 03:18:27;;;;;;;6.15;3.72;;;;;;;12.52;89.74;100274.88;5013321;28;20022;-74
2022/05/22 03:20:54;;;;;;;5.95;3.22;;;;;;;12.59;89.43;100274.47;5012179;28;20056;-74
2022/05/22 03:23:21;;;;;;;8.38;3.60;;;;;;;12.65;89.03;100263.94;5012151;28;20514;-74
2022/05/22 03:25:47;;;;;;;6.45;3.30;;;;;;;12.67;88.48;100266.31;5013419;28;20026;-74
2022/05/22 03:28:13;;;;;;;6.40;3.20;;;;;;;12.75;88.33;100276.03;5013396;28;20041;-74
2022/05/22 03:30:39;;;;;;;4.18;3.08;;;;;;;12.74;88.15;100269.53;5014753;28;20038;-73
2022/05/22 03:33:05;;;;;;;4.32;3.45;;;;;;;12.87;87.35;100272.09;5054422;28;20056;-74
2022/05/22 03:35:31;;;;;;;4.55;3.08;;;;;;;12.94;86.43;100266.72;5022047;28;20083;-74
2022/05/22 03:37:56;;;;;;;4.55;2.97;;;;;;;13.00;86.06;100269.69;5038867;28;20028;-75
2022/05/22 03:40:23;;;;;;;4.43;2.60;;;;;;;13.12;85.37;100262.09;5022058;28;20091;-75
2022/05/22 03:42:49;;;;;;;6.22;2.63;;;;;;;13.17;84.20;100258.53;5038818;28;20033;-74
2022/05/22 03:45:15;;;;;;;4.63;3.13;;;;;;;13.25;84.25;100256.81;5038522;28;20128;-75
2022/05/22 03:47:41;;;;;;;6.82;2.67;;;;;;;13.29;83.42;100261.03;5022055;28;20108;-75
2022/05/22 03:50:24;;;;;;;4.30;2.28;;;;;;;13.37;82.86;100259.31;5056111;28;20381;-74
2022/05/22 03:52:51;;;;;;;2.85;1.92;;;;;;;13.48;82.34;100269.34;5038325;28;20036;-73
2022/05/22 03:55:17;;;;;;;2.40;2.20;;;;;;;13.51;82.03;100262.63;5038551;28;20039;-74
2022/05/22 03:57:47;;;;;;;2.50;2.03;;;;;;;13.65;81.65;100268.28;5021827;28;20112;-75
2022/05/22 04:00:16;;;;;;;7.30;2.00;;;;;;;13.71;79.40;100265.50;5021859;28;20389;-76
2022/05/22 04:02:42;;;;;;;2.60;1.73;;;;;;;13.73;79.80;100269.41;5038072;28;20117;-73
2022/05/22 04:05:08;;;;;;;2.88;1.60;;;;;;;13.86;78.89;100271.13;5021640;28;20043;-73
2022/05/22 04:07:40;;;;;;;3.88;1.92;;;;;;;13.88;78.59;100268.53;5021708;28;20478;-74
2022/05/22 04:10:08;;;;;;;3.03;1.60;;;;;;;14.07;78.84;100272.66;5005248;28;20067;-74
2022/05/22 04:12:34;;;;;;;4.07;1.70;;;;;;;14.20;77.41;100256.66;5037884;28;20044;-74
2022/05/22 04:15:00;;;;;;;2.50;1.95;;;;;;;14.27;77.14;100259.06;5021378;28;20450;-73
2022/05/22 04:17:27;;;;;;;2.80;1.45;;;;;;;14.37;76.94;100248.25;5038128;28;20458;-74
2022/05/22 04:19:52;;;;;;;2.40;1.45;;;;;;;14.58;75.11;100241.16;5037786;28;20033;-74
2022/05/22 04:22:18;;;;;;;4.20;1.80;;;;;;;14.86;75.02;100249.16;5053685;28;20589;-74
2022/05/22 04:27:44;;;;;;;3.45;1.60;;;;;;;15.12;72.55;100249.88;5055465;28;20116;-75
2022/05/22 04:30:20;;;;;;;4.88;1.90;;;;;;;15.12;73.16;100255.63;5055698;28;20025;-75
2022/05/22 04:32:53;;;;;;;2.42;1.80;;;;;;;15.17;72.80;100246.25;5018215;28;20054;-75
2022/05/22 04:35:21;;;;;;;2.97;1.77;;;;;;;15.11;73.67;100248.31;5016384;28;20034;-75
2022/05/22 04:37:47;;;;;;;2.55;1.65;;;;;;;15.07;74.26;100245.69;4998201;28;20041;-75
2022/05/22 04:40:15;;;;;;;2.92;2.03;;;;;;;14.98;73.68;100248.75;5014360;28;20095;-74
2022/05/22 04:42:41;;;;;;;1.98;1.67;;;;;;;14.86;74.56;100261.44;5013593;28;20026;-74
2022/05/22 04:45:08;;;;;;;1.92;1.73;;;;;;;14.71;74.61;100252.19;5014345;28;20096;-74
2022/05/22 04:47:37;;;;;;;2.88;1.98;;;;;;;14.64;75.36;100255.53;5014326;28;20095;-74
2022/05/22 04:50:03;;;;;;;4.05;2.25;;;;;;;14.62;75.90;100253.16;4981951;28;20099;-74
2022/05/22 04:52:30;;;;;;;2.40;2.10;;;;;;;14.54;75.66;100257.00;5013865;28;20025;-74
2022/05/22 04:54:55;;;;;;;3.10;2.28;;;;;;;14.52;74.99;100254.66;5014407;28;20037;-74
2022/05/22 04:57:21;;;;;;;1.90;1.80;;;;;;;14.56;75.58;100248.66;5015564;28;20216;-74
2022/05/22 04:59:49;;;;;;;4.47;1.90;;;;;;;14.72;75.06;100253.75;4997231;28;20045;-74
2022/05/22 05:02:15;;;;;;;3.17;1.80;;;;;;;14.92;74.59;100250.78;5015204;28;20093;-73
2022/05/22 05:04:41;;;;;;;3.03;2.05;;;;;;;15.09;73.01;100245.97;5015401;28;20415;-74
2022/05/22 05:07:15;;;;;;;3.47;2.05;;;;;;;15.31;73.08;100247.38;5015055;28;20025;-75
2022/05/22 05:09:45;;;;;;;5.65;1.67;;;;;;;15.59;71.70;100241.81;4997431;28;20490;-75
2022/05/22 05:12:12;;;;;;;4.13;1.85;;;;;;;16.19;70.39;100246.94;5013927;28;20383;-75
2022/05/22 05:14:38;;;;;;;1.70;1.58;;;;;;;16.62;69.22;100255.41;4997733;28;20042;-75
2022/05/22 05:17:09;;;;;;;3.42;1.77;;;;;;;16.93;65.87;100240.72;5013639;28;20467;-74
2022/05/22 05:19:34;;;;;;;1.83;1.58;;;;;;;17.14;64.72;100252.72;5010771;28;20050;-74
2022/05/22 05:21:59;;;;;;;2.88;2.10;;;;;;;17.48;64.83;100259.97;5014724;28;20172;-74
2022/05/22 05:24:26;;;;;;;1.63;1.20;;;;;;;17.61;62.03;100247.94;5013699;28;20112;-74
2022/05/22 05:26:54;;;;;;;2.50;1.48;;;;;;;17.67;61.59;100249.47;5014907;28;20034;-74
2022/05/22 05:29:29;;;;;;;3.45;1.23;;;;;;;17.85;61.67;100250.97;5014661;28;20113;-74
2022/05/22 05:31:55;;;;;;;2.58;1.73;;;;;;;18.00;60.27;100254.28;5032328;28;20052;-74
2022/05/22 05:34:23;;;;;;;1.50;1.20;;;;;;;18.31;58.86;100247.28;5054239;28;20029;-73
2022/05/22 05:36:48;;;;;;;3.17;1.50;;;;;;;18.58;57.23;100244.75;5054514;28;20381;-74
2022/05/22 05:39:16;;;;;;;1.77;1.15;;;;;;;18.78;57.61;100253.00;5036503;28;20044;-74
2022/05/22 05:41:42;;;;;;;1.63;1.15;;;;;;;18.85;56.54;100235.84;5036202;28;20032;-74
2022/05/22 05:44:08;;;;;;;1.42;1.20;;;;;;;18.97;55.68;100248.09;5054089;28;20025;-74
2022/05/22 05:46:35;;;;;;;1.30;1.17;;;;;;;18.88;55.10;100257.09;5035223;28;20052;-74
2022/05/22 05:49:01;;;;;;;3.58;1.00;;;;;;;18.77;55.81;100254.31;5020009;28;20033;-74
2022/05/22 05:51:29;;;;;;;3.75;1.30;;;;;;;18.82;55.09;100251.38;5054251;28;20086;-75
2022/05/22 05:53:56;;;;;;;2.58;1.05;;;;;;;18.87;54.89;100264.97;5053916;28;20108;-75
2022/05/22 05:56:23;;;;;;;2.40;1.00;;;;;;;18.75;54.37;100254.84;5054047;28;20036;-74
2022/05/22 05:58:49;;;;;;;1.85;0.90;;;;;;;18.86;55.09;100248.19;5019635;28;20056;-75
2022/05/22 06:01:17;;;;;;;2.15;1.30;;;;;;;18.97;55.21;100257.53;5053707;28;20064;-75
2022/05/22 06:03:44;;;;;;;3.10;1.10;;;;;;;18.99;53.84;100248.34;5019710;28;20071;-76
2022/05/22 06:06:13;;;;;;;8.90;1.10;;;;;;;18.93;54.08;100271.50;5036407;28;20033;-75
2022/05/22 06:08:39;;;;;;;4.40;1.40;;;;;;;18.53;54.58;100269.41;5036244;28;20482;-76
2022/05/22 06:11:06;;;;;;;2.30;1.20;;;;;;;18.53;55.68;100266.53;5035728;28;20029;-75
2022/05/22 06:13:31;;;;;;;2.67;1.15;;;;;;;18.65;55.64;100258.63;5035846;28;20041;-74
2022/05/22 06:15:57;;;;;;;3.97;0.82;;;;;;;18.82;54.01;100265.03;5002760;28;20409;-74
2022/05/22 06:18:22;;;;;;;2.95;1.17;;;;;;;19.07;55.14;100265.84;5035854;28;20037;-75
2022/05/22 06:21:10;;;;;;;0.80;0.60;;;;;;;20.00;49.88;100268.22;5035741;28;20546;-74
2022/05/22 06:23:35;;;;;;;2.83;0.70;;;;;;;21.35;46.80;100274.28;5035915;28;20032;-74
2022/05/22 06:26:00;;;;;;;3.00;0.98;;;;;;;22.53;43.01;100255.97;5035762;28;20039;-74
2022/05/22 06:28:27;;;;;;;3.13;0.93;;;;;;;23.42;38.42;100274.03;5035581;28;20021;-74
2022/05/22 06:30:54;;;;;;;5.18;0.93;;;;;;;23.13;37.31;100262.41;5053125;28;20039;-75
2022/05/22 06:33:20;;;;;;;3.90;0.80;;;;;;;22.90;37.85;100269.31;5053570;28;20035;-74
2022/05/22 06:35:47;;;;;;;1.65;0.68;;;;;;;23.01;38.48;100269.81;5053620;28;20028;-74
2022/05/22 06:40:58;;;;;;;3.92;1.60;;;;;;;22.40;39.75;100272.06;5053530;28;20537;-75
2022/05/22 06:43:24;;;;;;;3.40;0.82;;;;;;;23.10;37.70;100272.22;5035550;28;20029;-75
2022/05/22 06:45:51;;;;;;;2.35;0.80;;;;;;;24.52;34.50;100266.31;5035876;28;20500;-74
2022/05/22 06:48:20;;;;;;;1.30;0.80;;;;;;;25.97;31.77;100259.13;5035628;28;20043;-75
2022/05/22 06:50:48;;;;;;;1.13;0.52;;;;;;;26.83;30.37;100267.72;5051983;28;20409;-75
2022/05/22 06:53:13;;;;;;;0.93;0.70;;;;;;;28.12;28.24;100260.72;5018823;28;20029;-75
2022/05/22 06:55:40;;;;;;;1.55;0.75;;;;;;;28.15;28.80;100266.13;5035294;28;20468;-74
2022/05/22 06:58:08;;;;;;;2.22;0.70;;;;;;;28.78;28.42;100259.63;5035448;28;20064;-74
2022/05/22 07:00:35;;;;;;;0.75;0.60;;;;;;;28.37;27.95;100276.00;5035333;28;20036;-74
2022/05/22 07:03:10;;;;;;;4.03;0.73;;;;;;;27.69;28.54;100262.91;5019102;28;20037;-75
2022/05/22 07:05:51;;;;;;;1.13;0.52;;;;;;;27.45;28.62;100266.63;5037859;28;20040;-75
2022/05/22 07:08:16;;;;;;;1.25;0.88;;;;;;;26.60;29.51;100271.53;5039171;28;20037;-74
2022/05/22 07:13:29;;;;;;;0.75;0.40;;;;;;;26.13;29.46;100268.63;5042170;28;20040;-76
2022/05/22 07:16:18;;;;;;;1.90;0.40;;;;;;;26.10;29.80;100263.97;5039225;28;20029;-75
2022/05/22 07:18:46;;;;;;;1.15;0.50;;;;;;;25.90;30.81;100262.88;5022365;28;20025;-75
2022/05/22 07:21:11;;;;;;;0.68;0.40;;;;;;;25.18;30.97;100265.47;5039065;28;20336;-75
2022/05/22 07:23:40;;;;;;;1.85;0.63;;;;;;;24.59;31.55;100268.47;5038938;28;20074;-75
2022/05/22 07:26:07;;;;;;;0.60;0.30;;;;;;;24.35;32.88;100277.72;5056949;28;20029;-75
2022/05/22 07:28:35;;;;;;;1.08;0.30;;;;;;;24.21;32.67;100276.31;5057019;28;20072;-75
2022/05/22 07:31:00;;;;;;;0.98;0.43;;;;;;;24.93;32.19;100266.03;5038445;28;20056;-74
2022/05/22 07:33:27;;;;;;;1.88;0.60;;;;;;;25.36;32.00;100267.97;5038731;28;20127;-74
2022/05/22 07:35:57;;;;;;;1.23;0.40;;;;;;;26.01;30.45;100271.19;5038756;28;20025;-75
2022/05/22 07:38:24;;;;;;;2.90;0.40;;;;;;;25.61;29.97;100262.34;5020785;28;20382;-74
2022/05/22 07:40:51;;;;;;;1.70;0.30;;;;;;;25.92;30.84;100263.06;5038776;28;20025;-75
2022/05/22 07:43:18;;;;;;;2.70;0.50;;;;;;;25.95;29.60;100266.94;5022375;28;20032;-74
2022/05/22 07:45:43;;;;;;;1.02;0.43;;;;;;;25.56;30.22;100257.47;5039015;28;20496;-75
2022/05/22 07:48:10;;;;;;;0.90;0.50;;;;;;;25.33;31.43;100247.97;5022155;28;20029;-75
2022/05/22 07:50:37;;;;;;;1.33;0.95;;;;;;;25.45;31.27;100254.19;5022012;28;20032;-75
2022/05/22 07:53:04;;;;;;;1.52;0.60;;;;;;;24.60;30.44;100245.94;5038269;28;20043;-75
2022/05/22 07:55:31;;;;;;;1.17;0.50;;;;;;;24.17;32.28;100250.50;5056541;28;20032;-76
2022/05/22 07:57:57;;;;;;;2.05;0.65;;;;;;;23.94;32.36;100229.19;5056065;28;20465;-76
2022/05/22 08:00:23;;;;;;;1.60;0.73;;;;;;;23.93;32.83;100230.53;5056360;28;20028;-76
2022/05/22 08:02:49;;;;;;;0.82;0.50;;;;;;;23.93;32.07;100231.31;5056310;28;20079;-76
2022/05/22 08:05:17;;;;;;;1.27;0.32;;;;;;;24.04;32.46;100238.94;5038302;28;20432;-76
2022/05/22 08:07:44;;;;;;;2.08;0.43;;;;;;;23.88;32.97;100229.34;5038549;28;20033;-75
2022/05/22 08:10:11;;;;;;;2.00;0.52;;;;;;;23.88;32.80;100229.34;5038044;28;20108;-75
2022/05/22 08:12:39;;;;;;;0.50;0.50;;;;;;;23.88;33.95;100228.59;5037916;28;20439;-75
2022/05/22 08:15:06;;;;;;;0.98;0.40;;;;;;;23.81;33.16;100223.50;5021903;28;20108;-74
2022/05/22 08:17:36;;;;;;;1.20;0.50;;;;;;;23.89;33.95;100216.38;5054847;28;20025;-75
2022/05/22 08:20:04;;;;;;;0.95;0.50;;;;;;;24.02;33.30;100222.06;5055061;28;20037;-75
2022/05/22 08:22:30;;;;;;;1.38;0.30;;;;;;;24.36;32.31;100210.16;5038015;28;20025;-75
2022/05/22 08:25:03;;;;;;;2.83;0.40;;;;;;;25.08;31.49;100206.19;5055844;28;20339;-75
2022/05/22 08:27:28;;;;;;;1.48;0.43;;;;;;;25.65;30.15;100210.22;5037961;28;20017;-75
2022/05/22 08:29:54;;;;;;;0.63;0.30;;;;;;;26.02;30.65;100208.50;5005273;28;20029;-75
2022/05/22 08:32:22;;;;;;;1.65;0.30;;;;;;;25.76;29.55;100206.84;4989307;28;20501;-76
2022/05/22 08:34:47;;;;;;;2.08;0.45;;;;;;;24.89;31.03;100219.00;5014568;28;20101;-76
2022/05/22 08:37:14;;;;;;;0.22;0.22;;;;;;;24.29;31.80;100210.91;5014717;28;20041;-76
2022/05/22 08:39:39;;;;;;;0.68;0.30;;;;;;;24.05;32.45;100212.16;4997626;28;20044;-74
2022/05/22 08:42:10;;;;;;;0.95;0.57;;;;;;;23.67;34.26;100202.50;5014629;28;20419;-75
2022/05/22 08:44:38;;;;;;;1.88;0.73;;;;;;;23.39;34.73;100223.63;5014597;28;20029;-76
2022/05/22 08:47:29;;;;;;;0.82;0.40;;;;;;;22.97;34.24;100213.41;4997963;28;20022;-75
2022/05/22 08:50:03;;;;;;;3.42;0.52;;;;;;;22.09;35.89;100231.66;5014214;28;20029;-76
2022/05/22 08:52:41;;;;;;;2.47;0.68;;;;;;;21.88;36.41;100219.94;5015612;28;20109;-74
2022/05/22 08:58:59;;;;;;;1.13;0.55;;;;;;;21.81;37.43;100221.41;5015175;28;20419;-75
2022/05/22 09:02:03;;;;;;;1.30;0.63;;;;;;;22.23;38.43;100216.53;5014399;28;20026;-76
2022/05/22 09:05:11;;;;;;;0.82;0.57;;;;;;;22.54;36.91;100206.03;5011038;28;20137;-75
2022/05/22 09:08:02;;;;;;;0.77;0.77;;;;;;;23.17;34.81;100209.72;4993517;28;20036;-76
2022/05/22 09:11:06;;;;;;;2.65;0.70;;;;;;;23.77;33.30;100214.38;5013991;28;20041;-75
2022/05/22 09:13:34;;;;;;;2.13;0.57;;;;;;;24.21;33.11;100212.25;4993321;28;20115;-76
2022/05/22 09:16:42;;;;;;;0.38;0.38;;;;;;;24.63;33.60;100195.25;5022877;28;20048;-74
2022/05/22 09:19:59;;;;;;;0.82;0.52;;;;;;;24.90;32.03;100199.41;5014444;28;20384;-75
2022/05/22 09:22:54;;;;;;;1.35;0.63;;;;;;;24.70;32.24;100198.19;5006119;28;20045;-76
2022/05/22 09:25:28;;;;;;;0.35;0.30;;;;;;;24.15;32.35;100209.50;5012257;28;20069;-75
2022/05/22 09:28:05;;;;;;;0.40;0.38;;;;;;;23.84;33.11;100201.97;5014543;28;20029;-75
2022/05/22 09:30:52;;;;;;;2.92;0.40;;;;;;;23.76;33.33;100201.97;5013246;28;20041;-75
2022/05/22 09:33:25;;;;;;;1.05;0.50;;;;;;;23.55;33.36;100201.25;5014533;28;20036;-76
2022/05/22 09:36:18;;;;;;;1.83;0.63;;;;;;;23.59;33.82;100202.44;5014618;28;20026;-75
2022/05/22 09:38:56;;;;;;;1.75;0.60;;;;;;;23.61;32.83;100198.97;5013355;28;20101;-76
2022/05/22 09:41:31;;;;;;;0.77;0.35;;;;;;;23.74;33.28;100190.09;5014679;28;20072;-76
2022/05/22 09:44:34;;;;;;;0.82;0.30;;;;;;;23.59;32.78;100199.53;5014604;28;20348;-76
2022/05/22 09:47:39;;;;;;;0.88;0.30;;;;;;;23.67;32.44;100197.47;5014779;28;20026;-74
2022/05/22 09:50:31;;;;;;;2.08;0.40;;;;;;;24.03;32.76;100196.63;4978696;28;20035;-74
2022/05/22 09:53:03;;;;;;;1.95;0.40;;;;;;;24.24;31.82;100197.31;4971571;28;20038;-74
2022/05/22 09:55:29;;;;;;;0.28;0.17;;;;;;;24.13;33.04;100188.13;4996751;28;20026;-75
2022/05/22 09:58:22;;;;;;;0.50;0.35;;;;;;;23.75;32.10;100193.78;5014369;28;20026;-76
2022/05/22 10:01:15;;;;;;;1.67;0.40;;;;;;;23.19;33.52;100204.09;5014295;28;20466;-76
2022/05/22 10:03:50;;;;;;;1.20;0.40;;;;;;;22.96;33.57;100200.22;5008554;28;20124;-76
2022/05/22 10:06:40;;;;;;;0.47;0.40;;;;;;;22.60;34.64;100200.06;5014444;28;20029;-76
2022/05/22 10:09:30;;;;;;;0.50;0.43;;;;;;;22.55;35.48;100203.91;5012856;28;20142;-74
2022/05/22 10:12:51;;;;;;;2.40;0.80;;;;;;;22.80;35.23;100208.03;5014457;28;20037;-76
2022/05/22 10:15:44;;;;;;;0.43;0.30;;;;;;;23.14;33.16;100202.91;4981538;28;20089;-75
2022/05/22 10:18:31;;;;;;;2.20;0.45;;;;;;;23.26;33.49;100206.28;4992425;28;20507;-75
2022/05/22 10:20:59;;;;;;;1.20;0.55;;;;;;;23.36;32.44;100206.53;5012814;28;20030;-75
2022/05/22 10:23:50;;;;;;;0.25;0.25;;;;;;;23.09;33.41;100200.16;5014177;28;20054;-75
2022/05/22 10:26:36;;;;;;;0.57;0.50;;;;;;;22.92;34.19;100208.53;5012819;28;20564;-75
2022/05/22 10:29:24;;;;;;;0.60;0.30;;;;;;;22.90;33.46;100208.31;5013955;28;20055;-75
2022/05/22 10:31:59;;;;;;;1.13;0.30;;;;;;;22.89;34.40;100200.97;5012402;28;20042;-76
2022/05/22 10:34:43;;;;;;;1.52;0.40;;;;;;;23.07;34.11;100212.34;4996246;28;20022;-76
2022/05/22 10:37:23;;;;;;;0.20;0.20;;;;;;;23.18;34.29;100217.09;4996192;28;20025;-74
2022/05/22 10:39:48;;;;;;;0.45;0.30;;;;;;;23.36;32.60;100209.44;5011586;28;20100;-75
2022/05/22 10:42:45;;;;;;;1.40;0.95;;;;;;;23.68;33.15;100206.97;4996083;28;20110;-76
2022/05/22 10:45:20;;;;;;;0.20;0.20;;;;;;;24.10;31.84;100213.34;4997213;28;20084;-74
2022/05/22 10:47:48;;;;;;;0.43;0.30;;;;;;;24.24;32.03;100216.91;5013595;28;20021;-74
2022/05/22 10:50:26;;;;;;;0.40;0.30;;;;;;;24.00;31.47;100218.94;5012592;28;20096;-76
2022/05/22 10:52:53;;;;;;;1.48;0.40;;;;;;;23.64;32.86;100221.09;5013730;28;20050;-75
2022/05/22 10:55:47;;;;;;;0.32;0.30;;;;;;;23.21;33.53;100233.38;5012309;28;20479;-76
2022/05/22 10:58:25;;;;;;;1.15;0.50;;;;;;;22.56;34.50;100237.41;5007385;28;20061;-75
2022/05/22 11:01:14;;;;;;;0.32;0.32;;;;;;;22.53;35.21;100230.63;5012425;28;20042;-76
2022/05/22 11:03:39;;;;;;;0.90;0.32;;;;;;;22.64;34.99;100227.44;5013529;28;20391;-76
2022/05/22 11:06:18;;;;;;;2.20;0.57;;;;;;;22.84;34.74;100231.72;5012408;28;20071;-74
2022/05/22 11:09:05;;;;;;;0.55;0.50;;;;;;;23.09;33.60;100224.16;5012430;28;20030;-76
2022/05/22 11:11:33;;;;;;;1.02;0.57;;;;;;;23.21;33.54;100210.13;5010011;28;20069;-75
2022/05/22 11:14:12;;;;;;;2.92;0.63;;;;;;;23.31;33.47;100211.16;5013624;28;20029;-74
2022/05/22 11:16:40;;;;;;;1.00;0.50;;;;;;;23.13;33.34;100212.97;5012613;28;20491;-75
2022/05/22 11:19:25;;;;;;;0.43;0.43;;;;;;;22.92;34.35;100218.03;5012364;28;20034;-76
2022/05/22 11:22:11;;;;;;;1.73;0.40;;;;;;;22.95;33.53;100198.66;5013603;28;20018;-76
2022/05/22 11:24:55;;;;;;;0.38;0.30;;;;;;;22.96;33.42;100203.91;5012973;28;20509;-75
2022/05/22 11:27:41;;;;;;;2.10;0.50;;;;;;;23.07;33.56;100202.84;5012126;28;20046;-75
2022/05/22 11:30:26;;;;;;;0.40;0.30;;;;;;;23.19;33.57;100193.25;5013235;28;20037;-75
2022/05/22 11:33:15;;;;;;;1.35;0.40;;;;;;;23.53;35.09;100196.00;5044957;28;20045;-75
2022/05/22 11:36:21;;;;;;;3.47;0.70;;;;;;;23.81;34.09;100183.56;5053165;28;20067;-76
2022/05/22 11:39:09;;;;;;;1.40;0.40;;;;;;;24.26;31.50;100190.94;5052750;28;20033;-75
2022/05/22 11:41:38;;;;;;;1.10;0.40;;;;;;;24.03;31.74;100185.75;5052815;28;20489;-75
2022/05/22 11:44:28;;;;;;;0.43;0.30;;;;;;;24.25;31.01;100192.28;5018806;28;20041;-74
2022/05/22 11:46:59;;;;;;;1.45;0.30;;;;;;;24.20;30.63;100194.00;5034946;28;20025;-74
2022/05/22 11:49:54;;;;;;;1.50;0.50;;;;;;;24.17;30.79;100188.56;5052934;28;20029;-76
2022/05/22 11:55:29;;;;;;;0.40;0.40;;;;;;;24.07;31.48;100189.09;5056609;28;20055;-76
2022/05/22 11:58:27;;;;;;;0.55;0.52;;;;;;;24.05;31.47;100185.19;5056566;28;20036;-75
2022/05/22 12:01:30;;;;;;;0.93;0.55;;;;;;;24.16;31.76;100181.94;5056304;28;20040;-74
2022/05/22 12:04:16;;;;;;;0.40;0.40;;;;;;;24.19;32.11;100172.06;5038143;28;20024;-75
2022/05/22 12:07:01;;;;;;;0.75;0.40;;;;;;;24.09;31.91;100171.81;5056318;28;20104;-76